Time;durP1;ratioP1;P1;durP2;ratioP2;P2;SDS_P1;SDS_P2;PMS_P1;PMS_P2;Temp;Humidity;BMP_temperature;BMP_pressure;BME280_temperature;BME280_humidity;BME280_pressure;Samples;Min_cycle;Max_cycle;Signal;HPM_P1;HPM_P2
2022/07/05 00:00:02;;;;;;;5.63;3.83;;;14.80;99.90;;;;;;4982281;28;20231;-93
2022/07/05 00:02:47;;;;;;;4.07;3.50;;;14.80;99.90;;;;;;4981234;28;20177;-92
2022/07/05 00:08:56;;;;;;;6.70;4.37;;;14.70;99.90;;;;;;4974431;28;20204;-93
2022/07/05 00:12:14;;;;;;;;;;;;;;;;;;;;;
2022/07/05 00:15:00;;;;;;;5.20;4.07;;;14.70;1.00;;;;;;4980234;28;20192;-91
2022/07/05 00:17:35;;;;;;;7.27;3.40;;;14.70;1.00;;;;;;4979726;28;20293;-91
2022/07/05 00:20:29;;;;;;;3.90;3.27;;;14.70;1.00;;;;;;4978047;28;20196;-92
2022/07/05 00:23:28;;;;;;;5.60;3.17;;;14.60;1.00;;;;;;4979083;28;20203;-94
2022/07/05 00:26:27;;;;;;;4.10;3.23;;;14.60;1.00;;;;;;4977320;28;20314;-91
2022/07/05 00:31:46;;;;;;;7.77;3.60;;;14.50;1.00;;;;;;4980926;28;20197;-92
2022/07/05 00:37:46;;;;;;;3.63;3.03;;;14.40;1.00;;;;;;4978206;28;20215;-91
2022/07/05 00:40:36;;;;;;;3.90;3.40;;;14.40;1.00;;;;;;4978268;28;20669;-93
2022/07/05 00:43:16;;;;;;;4.63;3.50;;;14.40;1.00;;;;;;4978951;28;20290;-92
2022/07/05 00:46:00;;;;;;;6.37;3.70;;;14.30;1.00;;;;;;4979200;28;20207;-92
2022/07/05 00:51:27;;;;;;;6.37;3.70;;;14.30;1.00;;;;;;4975266;28;20204;-93
2022/07/05 00:56:55;;;;;;;5.93;3.77;;;14.30;1.00;;;;;;4958486;28;20200;-90
2022/07/05 00:59:58;;;;;;;6.33;3.83;;;14.20;1.00;;;;;;4959906;28;20472;-92
2022/07/05 01:03:06;;;;;;;6.50;3.93;;;14.30;99.90;;;;;;4979397;28;20207;-93
2022/07/05 01:09:19;;;;;;;4.73;3.43;;;14.20;99.90;;;;;;4972182;28;20208;-92
2022/07/05 01:11:54;;;;;;;7.13;3.97;;;14.20;99.90;;;;;;4978478;28;20216;-90
2022/07/05 01:14:42;;;;;;;6.90;3.83;;;14.20;1.00;;;;;;4997499;28;20192;-91
2022/07/05 01:20:36;;;;;;;4.73;3.80;;;14.20;99.90;;;;;;4963884;28;20244;-89
2022/07/05 01:26:15;;;;;;;5.47;4.20;;;14.20;99.90;;;;;;4971184;28;20210;-93
2022/07/05 01:29:21;;;;;;;8.43;4.33;;;14.20;99.90;;;;;;4990987;28;20263;-91
2022/07/05 01:32:26;;;;;;;5.40;3.43;;;14.20;99.90;;;;;;5001632;28;20201;-92
2022/07/05 01:35:20;;;;;;;5.50;4.30;;;14.10;99.90;;;;;;4990507;28;20207;-90
2022/07/05 01:38:05;;;;;;;6.93;4.20;;;14.10;99.90;;;;;;5001478;28;20203;-90
2022/07/05 01:40:51;;;;;;;6.53;4.67;;;14.10;99.90;;;;;;5001267;28;20184;-90
2022/07/05 01:43:40;;;;;;;5.17;4.43;;;14.10;99.90;;;;;;5000670;28;20192;-92
2022/07/05 01:46:23;;;;;;;6.87;4.83;;;14.00;99.90;;;;;;5000897;28;20202;-92
2022/07/05 01:52:02;;;;;;;9.07;4.37;;;14.00;99.90;;;;;;4998636;28;20171;-91
2022/07/05 01:54:45;;;;;;;7.57;4.53;;;14.00;99.90;;;;;;5000374;28;20248;-91
2022/07/05 01:57:27;;;;;;;9.03;4.47;;;14.00;99.90;;;;;;5000196;28;20203;-93
2022/07/05 01:59:58;;;;;;;5.10;4.17;;;14.00;99.90;;;;;;5000263;28;20277;-92
2022/07/05 02:02:31;;;;;;;7.03;4.30;;;14.00;99.90;;;;;;5000226;28;20682;-89
2022/07/05 02:07:57;;;;;;;5.53;4.20;;;13.90;99.90;;;;;;4977916;28;20262;-90
2022/07/05 02:10:33;;;;;;;4.87;4.17;;;13.90;99.90;;;;;;4981293;28;20183;-91
2022/07/05 02:13:02;;;;;;;7.97;4.33;;;13.90;1.00;;;;;;4968247;28;20626;-88
2022/07/05 02:15:31;;;;;;;9.10;4.27;;;13.90;1.00;;;;;;4962125;28;20205;-88
2022/07/05 02:17:58;;;;;;;6.43;4.40;;;13.90;1.00;;;;;;4979386;28;20736;-87
2022/07/05 02:20:25;;;;;;;7.50;4.30;;;13.90;1.00;;;;;;4982888;28;20216;-89
2022/07/05 02:22:52;;;;;;;7.57;4.03;;;14.00;1.00;;;;;;4982576;28;20204;-87
2022/07/05 02:25:19;;;;;;;7.40;4.30;;;14.00;1.00;;;;;;4982453;28;20294;-89
2022/07/05 02:27:46;;;;;;;8.87;3.90;;;13.90;1.00;;;;;;4980435;28;20213;-89
2022/07/05 02:30:15;;;;;;;7.97;4.10;;;13.90;1.00;;;;;;4979308;28;20227;-88
2022/07/05 02:32:42;;;;;;;9.03;4.33;;;14.00;1.00;;;;;;4976881;28;20620;-88
2022/07/05 02:35:11;;;;;;;6.03;4.30;;;14.00;1.00;;;;;;4979605;28;20203;-88
2022/07/05 02:37:39;;;;;;;10.30;4.60;;;14.00;1.00;;;;;;4980425;28;20198;-88
2022/07/05 02:40:08;;;;;;;7.77;4.40;;;14.00;1.00;;;;;;4979089;28;20228;-89
2022/07/05 02:42:35;;;;;;;6.40;4.50;;;14.00;1.00;;;;;;4979334;28;20220;-89
2022/07/05 02:45:02;;;;;;;9.17;4.53;;;14.10;1.00;;;;;;4977307;28;20212;-88
2022/07/05 02:47:32;;;;;;;8.90;4.60;;;14.10;1.00;;;;;;4981360;28;20196;-88
2022/07/05 02:50:01;;;;;;;6.30;4.80;;;14.10;1.00;;;;;;4982723;28;20207;-88
2022/07/05 02:52:29;;;;;;;9.20;4.73;;;14.10;1.00;;;;;;4980666;28;20215;-88
2022/07/05 02:54:56;;;;;;;8.43;5.07;;;14.10;1.00;;;;;;4979552;28;20203;-88
2022/07/05 02:57:28;;;;;;;6.00;4.67;;;14.10;1.00;;;;;;4980702;28;20192;-88
2022/07/05 02:59:56;;;;;;;10.53;4.97;;;14.20;1.00;;;;;;4984462;28;20183;-89
2022/07/05 03:02:23;;;;;;;5.63;4.73;;;14.20;1.00;;;;;;4977348;28;20694;-89
2022/07/05 03:04:52;;;;;;;8.93;5.03;;;14.20;1.00;;;;;;4976557;28;20230;-87
2022/07/05 03:07:19;;;;;;;7.30;5.07;;;14.20;91.90;;;;;;4980302;28;20211;-88
2022/07/05 03:09:46;;;;;;;7.57;5.30;;;14.30;99.90;;;;;;4981584;28;20206;-87
2022/07/05 03:12:13;;;;;;;8.83;4.90;;;14.30;99.90;;;;;;4967283;28;20200;-87
2022/07/05 03:14:40;;;;;;;8.40;5.10;;;14.30;1.00;;;;;;4971041;28;20195;-87
2022/07/05 03:17:08;;;;;;;10.47;5.07;;;14.40;99.90;;;;;;4979906;28;20191;-87
2022/07/05 03:19:35;;;;;;;7.13;4.73;;;14.50;1.00;;;;;;4979843;28;20200;-88
2022/07/05 03:22:04;;;;;;;8.23;4.57;;;14.50;99.90;;;;;;4980605;28;20200;-88
2022/07/05 03:24:31;;;;;;;7.67;4.87;;;14.60;1.00;;;;;;4979180;28;20284;-89
2022/07/05 03:26:58;;;;;;;5.63;4.27;;;14.60;1.00;;;;;;4977749;28;20191;-88
2022/07/05 03:29:25;;;;;;;5.93;3.90;;;14.70;1.00;;;;;;4976686;28;20193;-87
2022/07/05 03:31:52;;;;;;;6.73;4.07;;;14.80;1.00;;;;;;4978486;28;20213;-87
2022/07/05 03:34:19;;;;;;;6.37;4.00;;;14.90;99.90;;;;;;4977088;28;20217;-88
2022/07/05 03:36:46;;;;;;;6.57;3.90;;;15.00;99.90;;;;;;4977808;28;20206;-89
2022/07/05 03:39:14;;;;;;;6.67;3.97;;;15.10;99.90;;;;;;4977353;28;20197;-88
2022/07/05 03:41:42;;;;;;;5.77;3.97;;;15.20;99.90;;;;;;4979164;28;20249;-88
2022/07/05 03:44:09;;;;;;;6.40;3.60;;;15.30;99.90;;;;;;4978650;28;20684;-89
2022/07/05 03:46:36;;;;;;;7.70;3.93;;;15.50;99.90;;;;;;4980841;28;20242;-89
2022/07/05 03:49:03;;;;;;;7.73;3.67;;;15.70;99.90;;;;;;4983973;28;20200;-88
2022/07/05 03:51:30;;;;;;;5.47;3.20;;;16.30;1.00;;;;;;4981652;28;20245;-88
2022/07/05 03:54:03;;;;;;;3.35;2.67;;;17.40;1.00;;;;;;4985867;28;20227;-89
2022/07/05 03:56:44;;;;;;;6.60;2.60;;;18.60;99.90;;;;;;4983351;28;20203;-88
2022/07/05 03:59:52;;;;;;;4.18;2.50;;;20.00;1.00;;;;;;4988615;28;20892;-90
2022/07/05 04:02:41;;;;;;;5.50;2.60;;;21.60;1.00;;;;;;4986440;28;20264;-92
2022/07/05 04:05:10;;;;;;;;;;;23.00;1.00;;;;;;4970643;28;20031;-92
2022/07/05 04:07:47;;;;;;;;;;;24.00;1.00;;;;;;4979812;28;19933;-90
2022/07/05 04:10:14;;;;;;;;;;;25.00;1.00;;;;;;4973656;28;19984;-88
2022/07/05 04:12:42;;;;;;;;;;;26.00;99.90;;;;;;4973680;28;19929;-88
2022/07/05 04:15:10;;;;;;;;;;;26.80;1.00;;;;;;4981336;28;19922;-90
2022/07/05 04:17:46;;;;;;;13.52;3.17;;;27.60;1.00;;;;;;4978415;28;20548;-90
2022/07/05 04:20:13;;;;;;;6.20;2.90;;;28.10;1.00;;;;;;4977211;28;20735;-88
2022/07/05 04:22:40;;;;;;;8.63;3.58;;;28.60;1.00;;;;;;4978317;28;20024;-89
2022/07/05 04:25:20;;;;;;;12.48;4.65;;;29.10;1.00;;;;;;4980945;28;20222;-89
2022/07/05 04:27:49;;;;;;;;;;;29.70;99.90;;;;;;4979429;28;20054;-89
2022/07/05 04:30:17;;;;;;;17.13;8.52;;;30.40;99.90;;;;;;4975901;28;20252;-89
2022/07/05 04:32:44;;;;;;;48.53;28.45;;;31.00;99.90;;;;;;4979780;28;20192;-90
2022/07/05 04:35:12;;;;;;;50.58;29.38;;;31.50;99.90;;;;;;4978593;28;20195;-90
2022/07/05 04:37:40;;;;;;;21.45;12.23;;;32.10;99.90;;;;;;4977384;28;20183;-90
2022/07/05 04:40:09;;;;;;;10.07;7.03;;;32.50;99.90;;;;;;4977283;28;20199;-90
2022/07/05 04:42:37;;;;;;;6.75;3.80;;;33.00;99.90;;;;;;4978800;28;20207;-90
2022/07/05 04:45:07;;;;;;;7.70;2.70;;;33.60;99.90;;;;;;4978492;28;20222;-90
2022/07/05 04:47:35;;;;;;;8.07;2.50;;;33.90;99.90;;;;;;4977925;28;20202;-90
2022/07/05 04:50:03;;;;;;;5.70;2.83;;;34.40;99.90;;;;;;4977403;28;20792;-89
2022/07/05 04:52:30;;;;;;;19.27;12.10;;;34.80;99.90;;;;;;4977665;28;20194;-90
2022/07/05 04:54:57;;;;;;;61.50;37.00;;;35.20;99.90;;;;;;4978067;28;20230;-90
2022/07/05 04:57:24;;;;;;;19.90;13.43;;;35.60;99.90;;;;;;4975333;28;20202;-90
2022/07/05 04:59:51;;;;;;;10.57;5.33;;;35.90;99.90;;;;;;4979711;28;20269;-90
2022/07/05 05:02:22;;;;;;;5.70;3.60;;;36.30;99.90;;;;;;4976218;28;20193;-91
2022/07/05 05:04:50;;;;;;;5.13;2.58;;;36.80;99.90;;;;;;4977251;28;20186;-91
2022/07/05 05:07:17;;;;;;;4.35;2.38;;;37.20;99.90;;;;;;4977440;28;20199;-90
2022/07/05 05:09:44;;;;;;;4.68;1.80;;;37.50;99.90;;;;;;4976595;28;20195;-91
2022/07/05 05:12:11;;;;;;;4.75;1.83;;;37.90;99.90;;;;;;4977561;28;20195;-91
2022/07/05 05:14:38;;;;;;;7.82;2.08;;;38.20;99.90;;;;;;4977053;28;20215;-91
2022/07/05 05:17:05;;;;;;;6.03;3.20;;;38.50;99.90;;;;;;4976824;28;20213;-89
2022/07/05 05:19:34;;;;;;;4.93;2.10;;;38.90;99.90;;;;;;4977024;28;20673;-87
2022/07/05 05:22:01;;;;;;;5.80;2.00;;;39.20;99.90;;;;;;4975984;28;20199;-91
2022/07/05 05:24:28;;;;;;;3.10;1.83;;;39.50;99.90;;;;;;4975280;28;20235;-87
2022/07/05 05:26:55;;;;;;;7.03;1.80;;;39.90;99.90;;;;;;4975849;28;20288;-88
2022/07/05 05:29:22;;;;;;;4.20;1.83;;;40.10;99.90;;;;;;4976715;28;20120;-89
2022/07/05 05:31:50;;;;;;;5.22;1.80;;;40.40;99.90;;;;;;4976501;28;20676;-88
2022/07/05 05:34:17;;;;;;;5.57;2.53;;;40.50;99.90;;;;;;4976585;28;20202;-88
2022/07/05 05:36:45;;;;;;;6.55;1.90;;;40.90;99.90;;;;;;4976831;28;20200;-87
2022/07/05 05:39:12;;;;;;;4.60;2.30;;;41.20;99.90;;;;;;4976926;28;20206;-87
2022/07/05 05:41:39;;;;;;;14.23;5.95;;;41.50;99.90;;;;;;4976937;28;20206;-91
2022/07/05 05:44:07;;;;;;;6.70;2.85;;;41.70;99.90;;;;;;4976641;28;20203;-88
2022/07/05 05:46:34;;;;;;;6.30;2.08;;;41.80;99.90;;;;;;4976475;28;20696;-88
2022/07/05 05:49:01;;;;;;;2.17;1.20;;;41.70;99.90;;;;;;4976125;28;20209;-88
2022/07/05 05:51:28;;;;;;;4.18;1.20;;;41.40;99.90;;;;;;4976329;28;20203;-89
2022/07/05 05:53:56;;;;;;;4.07;2.50;;;41.30;99.90;;;;;;4976419;28;20211;-88
2022/07/05 05:56:24;;;;;;;8.73;4.22;;;41.20;99.90;;;;;;4976024;28;20596;-88
2022/07/05 05:58:51;;;;;;;8.93;2.20;;;41.30;99.90;;;;;;4976188;28;20199;-88
2022/07/05 06:01:18;;;;;;;2.13;1.17;;;41.10;99.90;;;;;;4976068;28;20210;-87
2022/07/05 06:03:45;;;;;;;3.30;1.48;;;40.80;99.90;;;;;;4976064;28;20676;-88
2022/07/05 06:06:13;;;;;;;4.75;1.20;;;40.50;99.90;;;;;;4976723;28;20194;-87
2022/07/05 06:08:40;;;;;;;2.13;1.27;;;40.30;99.90;;;;;;4975878;28;20340;-88
2022/07/05 06:11:08;;;;;;;4.45;1.60;;;40.30;99.90;;;;;;4976079;28;20200;-88
2022/07/05 06:13:36;;;;;;;3.75;1.38;;;40.40;99.90;;;;;;4975673;28;20765;-88
2022/07/05 06:16:03;;;;;;;9.00;1.77;;;40.30;99.90;;;;;;4974650;28;20261;-88
2022/07/05 06:18:30;;;;;;;2.58;1.35;;;40.50;99.90;;;;;;4975944;28;20210;-87
2022/07/05 06:20:57;;;;;;;1.67;1.20;;;40.70;99.90;;;;;;4976151;28;20194;-87
2022/07/05 06:23:24;;;;;;;2.70;1.17;;;40.80;99.90;;;;;;4975997;28;20183;-89
2022/07/05 06:25:51;;;;;;;2.60;1.17;;;41.20;99.90;;;;;;4975868;28;20227;-88
2022/07/05 06:28:19;;;;;;;1.70;1.20;;;41.20;99.90;;;;;;4975730;28;20210;-88
2022/07/05 06:30:46;;;;;;;2.88;1.30;;;41.20;99.90;;;;;;4976137;28;20253;-88
2022/07/05 06:33:13;;;;;;;3.70;1.23;;;41.00;99.90;;;;;;4976029;28;20210;-88
2022/07/05 06:35:41;;;;;;;2.80;1.20;;;41.00;99.90;;;;;;4975390;28;20636;-88
2022/07/05 06:38:09;;;;;;;2.13;1.10;;;41.00;99.90;;;;;;4975186;28;20199;-87
2022/07/05 06:40:37;;;;;;;4.55;1.17;;;41.00;99.90;;;;;;4975727;28;20208;-88
2022/07/05 06:43:06;;;;;;;1.15;1.00;;;40.90;99.90;;;;;;4975367;28;20188;-88
2022/07/05 06:45:34;;;;;;;3.42;1.35;;;40.90;99.90;;;;;;4975552;28;20246;-87
2022/07/05 06:48:03;;;;;;;1.35;0.90;;;40.90;99.90;;;;;;4975192;28;20206;-89
2022/07/05 06:50:31;;;;;;;2.10;1.17;;;40.90;99.90;;;;;;4975632;28;20223;-88
2022/07/05 06:52:58;;;;;;;4.40;1.80;;;41.00;99.90;;;;;;4975697;28;20223;-88
2022/07/05 06:55:27;;;;;;;1.30;0.88;;;40.90;99.90;;;;;;4975415;28;20227;-88
2022/07/05 06:57:59;;;;;;;1.80;1.20;;;40.90;99.90;;;;;;4975440;28;20258;-89
2022/07/05 07:00:26;;;;;;;2.95;0.90;;;41.00;99.90;;;;;;4975544;28;20222;-90
2022/07/05 07:02:55;;;;;;;1.77;1.10;;;40.90;99.90;;;;;;4975595;28;20701;-89
2022/07/05 07:05:22;;;;;;;4.05;1.30;;;40.90;99.90;;;;;;4974935;28;20242;-88
2022/07/05 07:10:34;;;;;;;2.53;1.00;;;40.90;99.90;;;;;;4975035;28;20178;-91
2022/07/05 07:13:01;;;;;;;2.45;1.02;;;40.70;99.90;;;;;;4975297;28;20657;-88
2022/07/05 07:15:29;;;;;;;1.92;1.08;;;40.80;99.90;;;;;;4974913;28;20215;-89
2022/07/05 07:17:58;;;;;;;4.03;1.20;;;40.70;99.90;;;;;;4974787;28;20577;-87
2022/07/05 07:20:25;;;;;;;3.10;1.30;;;40.60;99.90;;;;;;4975908;28;20658;-87
2022/07/05 07:22:53;;;;;;;5.18;1.10;;;40.40;99.90;;;;;;4974320;28;20194;-88
2022/07/05 07:25:23;;;;;;;1.90;1.08;;;40.40;99.90;;;;;;4975006;28;20230;-87
2022/07/05 07:27:51;;;;;;;2.25;1.00;;;40.40;99.90;;;;;;4975514;28;20290;-87
2022/07/05 07:30:21;;;;;;;1.40;1.00;;;40.70;99.90;;;;;;4975741;28;20199;-89
2022/07/05 07:32:48;;;;;;;1.50;0.93;;;40.90;99.90;;;;;;4975320;28;20681;-87
2022/07/05 07:35:17;;;;;;;11.82;2.83;;;41.00;99.90;;;;;;4974910;28;20270;-87
2022/07/05 07:37:44;;;;;;;7.03;1.60;;;41.10;99.90;;;;;;4977105;28;20662;-87
2022/07/05 07:40:11;;;;;;;9.07;1.98;;;41.20;99.90;;;;;;4975344;28;20225;-86
2022/07/05 07:42:39;;;;;;;4.05;1.13;;;41.20;99.90;;;;;;4977669;28;20202;-91
2022/07/05 07:45:07;;;;;;;2.83;1.52;;;41.30;99.90;;;;;;4975897;28;20195;-87
2022/07/05 07:47:34;;;;;;;2.45;1.30;;;41.50;99.90;;;;;;4976288;28;20187;-88
2022/07/05 07:50:01;;;;;;;3.75;1.30;;;41.70;99.90;;;;;;4975420;28;20605;-90
2022/07/05 07:52:33;;;;;;;6.50;1.40;;;41.80;99.90;;;;;;4975120;28;20530;-88
2022/07/05 07:55:00;;;;;;;4.05;1.40;;;42.00;99.90;;;;;;4976038;28;20183;-88
2022/07/05 07:57:42;;;;;;;4.07;1.23;;;42.10;99.90;;;;;;4979999;28;20191;-91
2022/07/05 08:03:21;;;;;;;5.30;1.15;;;42.00;99.90;;;;;;4996366;28;20172;-93
2022/07/05 08:05:54;;;;;;;3.28;1.25;;;42.00;99.90;;;;;;4998646;28;20199;-92
2022/07/05 08:08:34;;;;;;;4.82;1.27;;;42.00;99.90;;;;;;4998685;28;20175;-92
2022/07/05 08:11:17;;;;;;;1.50;1.17;;;41.70;99.90;;;;;;4998676;28;20182;-89
2022/07/05 08:14:02;;;;;;;3.03;1.33;;;41.70;99.90;;;;;;4998815;28;20191;-92
2022/07/05 08:16:37;;;;;;;2.30;1.23;;;41.30;99.90;;;;;;4998421;28;20266;-89
2022/07/05 08:22:19;;;;;;;3.00;1.40;;;41.40;99.90;;;;;;4998277;28;20188;-89
2022/07/05 08:25:03;;;;;;;3.40;1.10;;;41.80;99.90;;;;;;4986906;28;20238;-90
2022/07/05 08:27:52;;;;;;;3.65;1.20;;;41.70;99.90;;;;;;4998162;28;20182;-93
2022/07/05 08:30:40;;;;;;;2.55;1.13;;;41.60;99.90;;;;;;4998816;28;20186;-89
2022/07/05 08:33:15;;;;;;;2.63;1.08;;;41.20;99.90;;;;;;4998133;28;20218;-91
2022/07/05 08:36:09;;;;;;;7.13;1.52;;;41.10;99.90;;;;;;4997881;28;20293;-90
2022/07/05 08:39:03;;;;;;;1.98;0.82;;;41.10;99.90;;;;;;4997360;28;20569;-88
2022/07/05 08:41:42;;;;;;;2.25;1.17;;;40.70;99.90;;;;;;4997805;28;20255;-92
2022/07/05 08:44:32;;;;;;;3.38;1.00;;;40.50;99.90;;;;;;4998037;28;20190;-92
2022/07/05 08:47:16;;;;;;;1.73;0.98;;;40.50;99.90;;;;;;4998185;28;20199;-91
2022/07/05 08:50:04;;;;;;;;;;;40.90;99.90;;;;;;4998323;28;20191;-90
2022/07/05 08:55:47;;;;;;;5.53;1.00;;;40.70;99.90;;;;;;4998280;28;20219;-90
2022/07/05 08:58:51;;;;;;;3.25;1.00;;;40.40;99.90;;;;;;4997947;28;20206;-91
2022/07/05 09:01:51;;;;;;;2.10;1.17;;;39.90;99.90;;;;;;4994581;28;20206;-91
2022/07/05 09:04:34;;;;;;;1.40;1.00;;;38.70;99.90;;;;;;4998099;28;20255;-90
2022/07/05 09:07:12;;;;;;;2.65;1.20;;;38.00;99.90;;;;;;4998115;28;20163;-90
2022/07/05 09:10:11;;;;;;;7.75;1.20;;;37.80;99.90;;;;;;4998077;28;20171;-91
2022/07/05 09:12:53;;;;;;;5.20;0.95;;;37.80;99.90;;;;;;4997689;28;20179;-92
2022/07/05 09:18:58;;;;;;;3.83;1.10;;;38.60;99.90;;;;;;4998371;28;20165;-90
2022/07/05 09:21:47;;;;;;;1.67;1.00;;;38.70;99.90;;;;;;4998031;28;20047;-89
2022/07/05 09:24:37;;;;;;;2.22;1.02;;;38.40;99.90;;;;;;4997778;28;20169;-91
2022/07/05 09:27:19;;;;;;;3.88;1.00;;;37.40;99.90;;;;;;4997830;28;20183;-92
2022/07/05 09:30:06;;;;;;;3.08;1.00;;;37.20;99.90;;;;;;4997789;28;20200;-89
2022/07/05 09:38:22;;;;;;;;;;;36.50;99.90;;;;;;4980283;28;20216;-90
2022/07/05 09:44:20;;;;;;;2.20;1.17;;;35.60;99.90;;;;;;4996026;28;20200;-91
2022/07/05 09:47:13;;;;;;;2.42;1.45;;;35.30;99.90;;;;;;4996409;28;20240;-89
2022/07/05 09:50:04;;;;;;;2.25;1.30;;;34.90;99.90;;;;;;4996667;28;20165;-91
2022/07/05 09:52:45;;;;;;;4.20;1.63;;;34.40;99.90;;;;;;5001014;28;20211;-90
2022/07/05 09:55:35;;;;;;;2.17;1.30;;;34.30;99.90;;;;;;5000658;28;20227;-91
2022/07/05 09:58:06;;;;;;;;;;;34.30;99.90;;;;;;5001066;28;20043;-90
2022/07/05 10:03:22;;;;;;;;;;;33.90;99.90;;;;;;5000318;28;19917;-89
2022/07/05 10:05:51;;;;;;;;;;;33.30;99.90;;;;;;5001532;28;19930;-89
2022/07/05 10:11:16;;;;;;;;;;;32.90;99.90;;;;;;4999959;28;19932;-90
2022/07/05 10:13:46;;;;;;;;;;;33.00;99.90;;;;;;5001210;28;19942;-92
2022/07/05 10:16:35;;;;;;;1.13;0.98;;;33.00;99.90;;;;;;5000260;28;20177;-89
2022/07/05 10:19:24;;;;;;;;;;;32.50;99.90;;;;;;5001101;28;20065;-88
2022/07/05 10:21:55;;;;;;;;;;;31.90;99.90;;;;;;5000617;28;20458;-88
2022/07/05 10:27:12;;;;;;;;;;;31.90;99.90;;;;;;4988905;28;19912;-90
2022/07/05 10:29:44;;;;;;;;;;;32.20;99.90;;;;;;5000578;28;19926;-87
2022/07/05 10:32:12;;;;;;;;;;;32.30;99.90;;;;;;5000213;28;19922;-87
2022/07/05 10:34:46;;;;;;;;;;;32.20;99.90;;;;;;5000158;28;19941;-90
2022/07/05 10:37:21;;;;;;;;;;;31.80;99.90;;;;;;4999620;28;19906;-90
2022/07/05 10:40:07;;;;;;;;;;;31.20;99.90;;;;;;5000323;28;19922;-89
2022/07/05 10:42:48;;;;;;;;;;;30.70;99.90;;;;;;4982794;28;19922;-91
2022/07/05 10:45:50;;;;;;;;;;;30.80;99.90;;;;;;4999543;28;19921;-91
2022/07/05 10:48:49;;;;;;;;;;;30.80;99.90;;;;;;4968946;28;19945;-89
2022/07/05 10:51:24;;;;;;;;;;;31.10;99.90;;;;;;5000082;28;19945;-90
2022/07/05 10:54:09;;;;;;;;;;;31.20;99.90;;;;;;5000190;28;19913;-89
2022/07/05 10:57:08;;;;;;;;;;;30.90;99.90;;;;;;4999622;28;19975;-87
2022/07/05 10:59:51;;;;;;;;;;;30.60;99.90;;;;;;5000227;28;19906;-91
2022/07/05 11:02:30;;;;;;;5.18;1.42;;;30.40;99.90;;;;;;4998263;28;20198;-90
2022/07/05 11:05:07;;;;;;;3.17;1.40;;;30.10;99.90;;;;;;4999545;28;20184;-92
2022/07/05 11:08:09;;;;;;;2.50;1.30;;;30.20;99.90;;;;;;4999334;28;20179;-90
2022/07/05 11:11:12;;;;;;;2.78;1.40;;;30.50;99.90;;;;;;4999499;28;20183;-89
2022/07/05 11:19:21;;;;;;;;;;;30.40;99.90;;;;;;4996920;28;20207;-90
2022/07/05 11:22:11;;;;;;;;;;;30.40;99.90;;;;;;4999805;28;19906;-88
2022/07/05 11:24:44;;;;;;;;;;;30.50;99.90;;;;;;4999479;28;19946;-90
2022/07/05 11:27:20;;;;;;;;;;;30.50;99.90;;;;;;4999683;28;20166;-90
2022/07/05 11:29:57;;;;;;;;;;;30.50;99.90;;;;;;4999486;28;19913;-89
2022/07/05 11:32:36;;;;;;;;;;;30.40;99.90;;;;;;4999816;28;19912;-91
2022/07/05 11:35:15;;;;;;;;;;;30.40;99.90;;;;;;4999620;28;19929;-88
2022/07/05 11:38:14;;;;;;;;;;;30.20;99.90;;;;;;4999138;28;19978;-89
2022/07/05 11:43:32;;;;;;;11.13;2.03;;;29.80;99.90;;;;;;4976974;28;20192;-89
2022/07/05 11:46:21;;;;;;;1.90;1.20;;;30.00;99.90;;;;;;4998609;28;20204;-94
2022/07/05 11:51:47;;;;;;;4.18;1.63;;;30.00;99.90;;;;;;4996448;28;20182;-91
2022/07/05 11:54:32;;;;;;;2.60;1.15;;;29.90;99.90;;;;;;4998349;28;20226;-90
2022/07/05 11:57:04;;;;;;;1.45;1.30;;;29.80;99.90;;;;;;4998488;28;20219;-89
2022/07/05 11:59:50;;;;;;;3.08;1.30;;;29.80;99.90;;;;;;4998565;28;20271;-90
2022/07/05 12:02:23;;;;;;;1.10;1.00;;;29.90;99.90;;;;;;4998468;28;20198;-88
2022/07/05 12:05:00;;;;;;;1.40;1.15;;;30.20;99.90;;;;;;4998328;28;20184;-87
2022/07/05 12:07:27;;;;;;;3.10;1.55;;;30.30;99.90;;;;;;4980162;28;20242;-89
2022/07/05 12:12:47;;;;;;;4.43;1.85;;;30.40;99.90;;;;;;4973589;28;20190;-88
2022/07/05 12:15:16;;;;;;;2.35;1.20;;;30.40;99.90;;;;;;4974131;28;20197;-88
2022/07/05 12:17:46;;;;;;;3.40;1.38;;;30.50;99.90;;;;;;4973543;28;20216;-86
2022/07/05 12:20:15;;;;;;;3.42;1.40;;;30.50;99.90;;;;;;4973877;28;20207;-87
2022/07/05 12:22:44;;;;;;;3.90;1.38;;;30.50;99.90;;;;;;4973583;28;20204;-88
2022/07/05 12:25:14;;;;;;;1.40;1.30;;;30.30;99.90;;;;;;4973638;28;20673;-86
2022/07/05 12:27:43;;;;;;;2.30;1.45;;;30.30;99.90;;;;;;4973666;28;20266;-87
2022/07/05 12:30:11;;;;;;;3.13;1.50;;;30.50;99.90;;;;;;4973550;28;20192;-87
2022/07/05 12:32:56;;;;;;;2.25;1.50;;;30.50;99.90;;;;;;4973744;28;20567;-87
2022/07/05 12:35:37;;;;;;;1.85;1.45;;;30.30;99.90;;;;;;4973944;28;20646;-86
2022/07/05 12:38:06;;;;;;;4.20;1.50;;;30.00;99.90;;;;;;4973624;28;20215;-87
2022/07/05 12:40:33;;;;;;;2.60;1.50;;;29.80;99.90;;;;;;4973159;28;20195;-85
2022/07/05 12:43:06;;;;;;;2.40;1.40;;;29.80;99.90;;;;;;4973695;28;20192;-89
2022/07/05 12:45:33;;;;;;;2.33;1.40;;;29.70;99.90;;;;;;4973474;28;20188;-87
2022/07/05 12:48:04;;;;;;;3.40;1.50;;;29.70;99.90;;;;;;4973827;28;20282;-89
2022/07/05 12:50:44;;;;;;;3.20;1.45;;;29.60;99.90;;;;;;4973364;28;20730;-88
2022/07/05 12:58:49;;;;;;;4.78;1.52;;;29.60;99.90;;;;;;4973593;28;20180;-86
2022/07/05 13:01:21;;;;;;;2.45;1.42;;;29.70;99.90;;;;;;4973608;28;20627;-86
2022/07/05 13:04:05;;;;;;;2.40;1.50;;;29.80;99.90;;;;;;4954311;29;20204;-90
2022/07/05 13:06:43;;;;;;;3.67;1.60;;;29.60;99.90;;;;;;4954402;28;20566;-86
2022/07/05 13:09:11;;;;;;;3.50;1.65;;;29.40;99.90;;;;;;4954319;29;20207;-86
2022/07/05 13:11:39;;;;;;;2.22;1.60;;;29.20;99.90;;;;;;4968282;28;20584;-87
2022/07/05 13:14:06;;;;;;;4.28;1.60;;;29.00;99.90;;;;;;4974017;28;20200;-88
2022/07/05 13:16:33;;;;;;;1.83;1.50;;;29.00;99.90;;;;;;4973521;28;20200;-86
2022/07/05 13:19:09;;;;;;;3.10;1.63;;;29.00;99.90;;;;;;4973329;28;20666;-88
2022/07/05 13:21:36;;;;;;;2.13;1.67;;;29.20;99.90;;;;;;4972917;28;20184;-88
2022/07/05 13:24:04;;;;;;;3.75;1.48;;;29.40;99.90;;;;;;4974143;28;20207;-87
2022/07/05 13:26:31;;;;;;;2.97;1.38;;;29.50;99.90;;;;;;4976680;28;20693;-87
2022/07/05 13:28:58;;;;;;;2.60;1.40;;;29.60;99.90;;;;;;4976106;28;20204;-88
2022/07/05 13:31:28;;;;;;;5.90;1.70;;;29.80;99.90;;;;;;4976807;28;20215;-86
2022/07/05 13:33:55;;;;;;;3.67;1.48;;;29.80;99.90;;;;;;4977034;28;20192;-87
2022/07/05 13:36:24;;;;;;;2.50;1.38;;;29.80;99.90;;;;;;4976929;28;20199;-86
2022/07/05 13:38:51;;;;;;;2.67;1.67;;;29.80;99.90;;;;;;4976436;28;20227;-86
2022/07/05 13:41:18;;;;;;;3.63;1.67;;;29.70;99.90;;;;;;4976593;28;20620;-85
2022/07/05 13:43:45;;;;;;;4.35;1.42;;;29.60;99.90;;;;;;4970053;28;20654;-86
2022/07/05 13:46:12;;;;;;;1.70;1.42;;;29.30;99.90;;;;;;4957321;29;20220;-86
2022/07/05 13:48:40;;;;;;;3.03;1.40;;;29.20;99.90;;;;;;4963068;28;20238;-88
2022/07/05 13:51:08;;;;;;;5.43;1.75;;;29.00;99.90;;;;;;4975906;28;20265;-86
2022/07/05 13:53:37;;;;;;;5.22;1.50;;;28.80;99.90;;;;;;4975781;28;20670;-86
2022/07/05 13:56:05;;;;;;;4.20;1.90;;;28.70;99.90;;;;;;4975361;28;20632;-86
2022/07/05 13:58:32;;;;;;;3.35;1.80;;;28.70;99.90;;;;;;4976174;28;20698;-87
2022/07/05 14:00:59;;;;;;;3.83;1.73;;;28.70;99.90;;;;;;4976088;28;20204;-89
2022/07/05 14:03:26;;;;;;;1.90;1.50;;;28.60;99.90;;;;;;4976163;28;20200;-89
2022/07/05 14:05:54;;;;;;;3.72;1.60;;;28.40;99.90;;;;;;4976893;28;20567;-87
2022/07/05 14:08:22;;;;;;;4.38;1.65;;;28.40;99.90;;;;;;4973494;28;20199;-89
2022/07/05 14:10:51;;;;;;;2.42;1.58;;;28.40;99.90;;;;;;4976274;28;20230;-90
2022/07/05 14:13:19;;;;;;;1.90;1.50;;;28.40;99.90;;;;;;4972882;28;20227;-87
2022/07/05 14:15:47;;;;;;;4.05;1.75;;;28.30;99.90;;;;;;4975491;28;20541;-89
2022/07/05 14:18:15;;;;;;;1.85;1.35;;;28.20;99.90;;;;;;4971930;28;20219;-84
2022/07/05 14:20:42;;;;;;;2.75;1.90;;;28.10;99.90;;;;;;4976303;28;20231;-86
2022/07/05 14:23:10;;;;;;;2.13;1.70;;;28.00;99.90;;;;;;4975314;28;20211;-89
2022/07/05 14:25:37;;;;;;;6.57;1.70;;;28.00;99.90;;;;;;4976253;28;20223;-86
2022/07/05 14:28:08;;;;;;;3.92;1.52;;;28.00;99.90;;;;;;4961971;28;20200;-86
2022/07/05 14:30:36;;;;;;;;;;;28.00;99.90;;;;;;4957222;29;20185;-86
2022/07/05 14:33:03;;;;;;;;;;;28.00;99.90;;;;;;4957334;29;19931;-89
2022/07/05 14:35:30;;;;;;;;;;;27.90;99.90;;;;;;4955959;28;19933;-90
2022/07/05 14:37:56;;;;;;;;;;;28.00;99.90;;;;;;4956833;29;19926;-86
2022/07/05 14:40:24;;;;;;;;;;;28.00;99.90;;;;;;4958899;28;19926;-90
2022/07/05 14:42:51;;;;;;;;;;;28.00;99.90;;;;;;4958761;28;20332;-85
2022/07/05 14:45:20;;;;;;;;;;;27.90;99.90;;;;;;4955184;28;19985;-87
2022/07/05 14:47:53;;;;;;;;;;;27.90;99.90;;;;;;4968695;29;19974;-89
2022/07/05 14:50:20;;;;;;;;;;;27.90;99.90;;;;;;4977959;29;19911;-85
2022/07/05 14:52:47;;;;;;;;;;;27.80;99.90;;;;;;4956255;28;19930;-81
2022/07/05 14:55:14;;;;;;;;;;;27.80;99.90;;;;;;4962772;28;20014;-84
2022/07/05 14:57:43;;;;;;;;;;;27.70;99.90;;;;;;4982230;28;19933;-87
2022/07/05 15:00:44;;;;;;;;;;;;;;;;;;;;;